createdAt,value
2018-05-18T00:00:01.317Z,27.90
2018-05-18T00:02:28.772Z,24.80
2018-05-18T00:04:57.024Z,27.90
2018-05-18T00:07:24.492Z,20.00
2018-05-18T00:09:52.045Z,25.87
2018-05-18T00:12:19.508Z,21.97
2018-05-18T00:14:46.960Z,24.43
2018-05-18T00:17:14.427Z,24.30
2018-05-18T00:19:41.900Z,20.90
2018-05-18T00:22:09.369Z,24.47
2018-05-18T00:24:36.829Z,21.30
2018-05-18T00:27:04.317Z,19.50
2018-05-18T00:29:31.818Z,26.67
2018-05-18T00:31:59.328Z,19.87
2018-05-18T00:34:26.784Z,22.03
2018-05-18T00:36:54.248Z,25.73
2018-05-18T00:39:21.707Z,25.40
2018-05-18T00:41:49.268Z,25.10
2018-05-18T00:44:16.769Z,21.93
2018-05-18T00:46:44.229Z,22.77
2018-05-18T00:49:12.448Z,25.03
2018-05-18T00:51:39.986Z,21.53
2018-05-18T00:54:07.452Z,27.20
2018-05-18T00:56:34.911Z,24.13
2018-05-18T00:59:02.377Z,28.37
2018-05-18T01:01:30.608Z,29.80
2018-05-18T01:03:58.068Z,32.37
2018-05-18T01:06:26.292Z,23.17
2018-05-18T01:08:53.756Z,23.60
2018-05-18T01:11:21.976Z,24.60
2018-05-18T01:13:49.481Z,22.30
2018-05-18T01:16:16.965Z,22.90
2018-05-18T01:18:44.445Z,24.53
2018-05-18T01:21:11.944Z,26.70
2018-05-18T01:23:39.412Z,22.77
2018-05-18T01:26:07.430Z,23.17
2018-05-18T01:28:34.912Z,23.53
2018-05-18T01:31:02.372Z,22.67
2018-05-18T01:33:29.843Z,21.17
2018-05-18T01:35:57.304Z,33.97
2018-05-18T01:38:25.532Z,22.07
2018-05-18T01:40:53.035Z,24.10
2018-05-18T01:43:20.541Z,19.27
2018-05-18T01:45:48.032Z,21.47
2018-05-18T01:48:15.501Z,28.57
2018-05-18T01:50:42.960Z,22.97
2018-05-18T01:53:10.425Z,26.23
2018-05-18T01:55:38.676Z,20.47
2018-05-18T01:58:06.182Z,29.03
2018-05-18T02:00:35.154Z,24.87
2018-05-18T02:03:02.620Z,24.63
2018-05-18T02:05:30.080Z,26.60
2018-05-18T02:07:59.069Z,27.57
2018-05-18T02:10:26.536Z,26.63
2018-05-18T02:12:54.001Z,27.80
2018-05-18T02:15:21.524Z,25.87
2018-05-18T02:17:48.988Z,23.10
2018-05-18T02:20:16.536Z,20.83
2018-05-18T02:22:44.760Z,23.67
2018-05-18T02:25:12.229Z,26.57
2018-05-18T02:27:40.555Z,29.27
2018-05-18T02:30:08.782Z,23.13
2018-05-18T02:32:36.287Z,27.67
2018-05-18T02:35:04.532Z,27.13
2018-05-18T02:37:31.994Z,24.90
2018-05-18T02:40:00.240Z,21.87
2018-05-18T02:42:27.829Z,21.13
2018-05-18T02:44:55.295Z,21.10
2018-05-18T02:47:22.752Z,21.37
2018-05-18T02:49:50.978Z,24.43
2018-05-18T02:52:18.488Z,21.47
2018-05-18T02:54:45.909Z,25.07
2018-05-18T02:57:13.461Z,22.27
2018-05-18T02:59:40.951Z,22.40
2018-05-18T03:02:08.472Z,25.43
2018-05-18T03:04:36.737Z,21.80
2018-05-18T03:07:04.216Z,17.73
2018-05-18T03:09:31.682Z,21.90
2018-05-18T03:11:59.297Z,19.70
2018-05-18T03:14:26.833Z,23.63
2018-05-18T03:16:55.060Z,28.93
2018-05-18T03:19:22.577Z,30.83
2018-05-18T03:21:50.053Z,27.53
2018-05-18T03:24:17.512Z,22.80
2018-05-18T03:26:44.982Z,22.73
2018-05-18T03:29:13.213Z,25.83
2018-05-18T03:31:40.733Z,19.17
2018-05-18T03:34:08.201Z,20.30
2018-05-18T03:36:35.669Z,27.93
2018-05-18T03:39:03.133Z,21.20
2018-05-18T03:41:31.369Z,27.13
2018-05-18T03:43:58.829Z,21.43
2018-05-18T03:46:27.052Z,24.50
2018-05-18T03:48:54.509Z,23.50
2018-05-18T03:51:22.065Z,27.57
2018-05-18T03:53:49.548Z,25.67
2018-05-18T03:56:17.024Z,22.37
2018-05-18T03:58:44.512Z,19.83
2018-05-18T04:01:24.116Z,23.90
2018-05-18T04:04:03.707Z,24.23
2018-05-18T04:06:43.781Z,20.70
2018-05-18T04:09:11.346Z,19.80
2018-05-18T04:11:38.809Z,22.90
2018-05-18T04:14:06.410Z,22.83
2018-05-18T04:16:33.871Z,27.60
2018-05-18T04:19:01.333Z,19.63
2018-05-18T04:21:29.558Z,22.97
2018-05-18T04:23:57.079Z,24.27
2018-05-18T04:26:24.536Z,25.50
2018-05-18T04:28:52.007Z,24.53
2018-05-18T04:31:19.518Z,21.90
2018-05-18T04:33:46.980Z,21.83
2018-05-18T04:36:14.441Z,21.37
2018-05-18T04:38:42.720Z,23.57
2018-05-18T04:41:10.181Z,16.03
2018-05-18T04:43:37.788Z,23.70
2018-05-18T04:46:05.252Z,23.53
2018-05-18T04:48:32.749Z,20.13
2018-05-18T04:51:00.317Z,18.47
2018-05-18T04:53:27.696Z,21.63
2018-05-18T04:55:55.220Z,21.43
2018-05-18T04:58:22.685Z,23.03
2018-05-18T05:00:50.149Z,25.00
2018-05-18T05:03:18.376Z,25.03
2018-05-18T05:05:45.837Z,24.17
2018-05-18T05:08:13.296Z,22.40
2018-05-18T05:10:40.800Z,25.40
2018-05-18T05:13:08.256Z,21.80
2018-05-18T05:15:35.772Z,21.60
2018-05-18T05:18:03.233Z,33.00
2018-05-18T05:20:30.694Z,25.03
2018-05-18T05:22:58.949Z,23.10
2018-05-18T05:25:26.411Z,21.83
2018-05-18T05:27:53.872Z,20.80
2018-05-18T05:30:22.189Z,26.30
2018-05-18T05:32:49.613Z,25.70
2018-05-18T05:35:17.075Z,25.37
2018-05-18T05:37:44.600Z,24.73
2018-05-18T05:40:12.057Z,25.07
2018-05-18T05:42:39.527Z,25.93
2018-05-18T05:45:07.774Z,27.73
2018-05-18T05:47:35.251Z,23.43
2018-05-18T05:50:02.746Z,26.43
2018-05-18T05:52:30.204Z,26.87
2018-05-18T05:54:57.714Z,28.60
2018-05-18T05:57:25.179Z,28.63
2018-05-18T05:59:52.691Z,21.50
2018-05-18T06:02:20.158Z,23.10
2018-05-18T06:04:47.649Z,24.87
2018-05-18T06:07:15.145Z,23.07
2018-05-18T06:09:42.607Z,29.23
2018-05-18T06:12:10.138Z,25.37
2018-05-18T06:14:37.598Z,26.10
2018-05-18T06:17:05.129Z,27.83
2018-05-18T06:19:33.446Z,23.23
2018-05-18T06:22:00.877Z,26.70
2018-05-18T06:24:28.366Z,21.13
2018-05-18T06:26:55.847Z,24.20
2018-05-18T06:29:23.308Z,20.03
2018-05-18T06:31:50.808Z,22.37
2018-05-18T06:34:18.270Z,21.43
2018-05-18T06:36:45.761Z,18.73
2018-05-18T06:39:13.264Z,19.40
2018-05-18T06:41:40.765Z,23.00
2018-05-18T06:44:08.269Z,20.47
2018-05-18T06:46:35.765Z,23.53
2018-05-18T06:49:03.229Z,20.53
2018-05-18T06:51:30.738Z,19.27
2018-05-18T06:53:58.256Z,22.00
2018-05-18T06:56:25.720Z,19.77
2018-05-18T06:58:53.383Z,18.90
2018-05-18T07:01:20.774Z,16.03
2018-05-18T07:03:49.029Z,19.37
2018-05-18T07:06:16.544Z,21.40
2018-05-18T07:08:44.011Z,18.80
2018-05-18T07:11:12.293Z,21.70
2018-05-18T07:13:39.760Z,21.90
2018-05-18T07:16:08.737Z,23.03
2018-05-18T07:18:36.197Z,17.40
2018-05-18T07:21:03.756Z,20.37
2018-05-18T07:23:31.277Z,22.43
2018-05-18T07:25:58.784Z,18.13
2018-05-18T07:28:26.297Z,21.70
2018-05-18T07:30:53.801Z,19.80
2018-05-18T07:33:21.325Z,18.90
2018-05-18T07:35:48.822Z,18.17
2018-05-18T07:38:16.693Z,18.20
2018-05-18T07:40:44.196Z,17.45
2018-05-18T07:43:11.681Z,19.80
2018-05-18T07:45:39.980Z,16.50
2018-05-18T07:48:07.449Z,17.05
2018-05-18T07:50:34.935Z,17.33
2018-05-18T07:53:02.411Z,17.55
2018-05-18T07:55:29.882Z,17.98
2018-05-18T07:57:57.396Z,16.77
2018-05-18T08:00:24.885Z,17.73
2018-05-18T08:02:52.349Z,19.40
2018-05-18T08:05:19.812Z,16.08
2018-05-18T08:07:47.358Z,19.00
2018-05-18T08:10:14.806Z,13.43
2018-05-18T08:12:42.276Z,15.70
2018-05-18T08:15:09.760Z,16.48
2018-05-18T08:17:37.260Z,16.20
2018-05-18T08:20:04.741Z,16.77
2018-05-18T08:22:32.233Z,18.17
2018-05-18T08:24:59.813Z,16.90
2018-05-18T08:27:28.121Z,17.00
2018-05-18T08:29:55.582Z,17.75
2018-05-18T08:32:23.080Z,21.15
2018-05-18T08:34:50.566Z,19.30
2018-05-18T08:37:18.047Z,15.90
2018-05-18T08:39:45.510Z,22.90
2018-05-18T08:42:13.022Z,18.33
2018-05-18T08:44:40.497Z,16.00
2018-05-18T08:47:07.973Z,15.38
2018-05-18T08:49:35.478Z,20.05
2018-05-18T08:52:02.952Z,19.08
2018-05-18T08:54:30.418Z,16.17
2018-05-18T08:56:57.916Z,17.10
2018-05-18T08:59:25.384Z,18.02
2018-05-18T09:01:52.886Z,18.75
2018-05-18T09:04:20.360Z,17.65
2018-05-18T09:06:47.824Z,19.62
2018-05-18T09:09:15.351Z,21.73
2018-05-18T09:11:42.816Z,20.37
2018-05-18T09:14:10.329Z,17.37
2018-05-18T09:16:37.806Z,21.67
2018-05-18T09:19:05.294Z,12.90
2018-05-18T09:21:32.776Z,17.30
2018-05-18T09:24:00.245Z,17.95
2018-05-18T09:26:28.504Z,17.40
2018-05-18T09:28:55.982Z,18.10
2018-05-18T09:31:23.476Z,19.05
2018-05-18T09:33:51.028Z,16.05
2018-05-18T09:36:18.442Z,16.37
2018-05-18T09:38:45.909Z,13.48
2018-05-18T09:41:13.385Z,16.70
2018-05-18T09:43:40.893Z,20.50
2018-05-18T09:46:08.481Z,14.75
2018-05-18T09:48:35.954Z,11.93
2018-05-18T09:51:03.478Z,14.02
2018-05-18T09:53:30.941Z,16.98
2018-05-18T09:55:58.433Z,15.48
2018-05-18T09:58:26.024Z,14.85
2018-05-18T10:00:53.488Z,15.52
2018-05-18T10:03:21.005Z,13.52
2018-05-18T10:05:48.469Z,11.35
2018-05-18T10:08:15.965Z,13.95
2018-05-18T10:10:43.455Z,14.30
2018-05-18T10:13:10.926Z,15.50
2018-05-18T10:15:38.430Z,13.20
2018-05-18T10:18:06.660Z,12.25
2018-05-18T10:20:34.906Z,13.40
2018-05-18T10:23:02.389Z,13.88
2018-05-18T10:25:29.864Z,14.00
2018-05-18T10:27:57.353Z,11.50
2018-05-18T10:30:30.280Z,12.48
2018-05-18T10:32:57.940Z,15.60
2018-05-18T10:35:25.405Z,11.85
2018-05-18T10:37:53.633Z,11.98
2018-05-18T10:40:21.179Z,10.60
2018-05-18T10:42:48.640Z,19.45
2018-05-18T10:45:16.198Z,13.32
2018-05-18T10:47:43.593Z,11.35
2018-05-18T10:50:11.821Z,13.32
2018-05-18T10:52:39.332Z,10.60
2018-05-18T10:55:06.911Z,11.52
2018-05-18T10:57:34.372Z,12.65
2018-05-18T11:00:01.884Z,11.57
2018-05-18T11:02:29.358Z,12.93
2018-05-18T11:04:56.825Z,12.73
2018-05-18T11:07:24.297Z,13.30
2018-05-18T11:09:51.851Z,11.15
2018-05-18T11:12:20.078Z,11.50
2018-05-18T11:14:47.547Z,10.65
2018-05-18T11:17:15.805Z,12.60
2018-05-18T11:19:43.299Z,11.32
2018-05-18T11:22:10.761Z,8.52
2018-05-18T11:24:38.257Z,7.72
2018-05-18T11:27:05.768Z,8.40
2018-05-18T11:29:33.242Z,10.57
2018-05-18T11:32:00.805Z,11.77
2018-05-18T11:34:28.285Z,10.65
2018-05-18T11:36:55.770Z,10.40
2018-05-18T11:39:23.357Z,11.02
2018-05-18T11:41:50.827Z,13.73
2018-05-18T11:44:18.321Z,9.88
2018-05-18T11:46:45.901Z,7.12
2018-05-18T11:49:13.382Z,10.10
2018-05-18T11:51:40.860Z,10.68
2018-05-18T11:54:08.328Z,7.70
2018-05-18T11:56:35.835Z,10.07
2018-05-18T11:59:03.301Z,12.23
2018-05-18T12:01:30.816Z,8.95
2018-05-18T12:03:58.280Z,9.70
2018-05-18T12:06:25.780Z,10.73
2018-05-18T12:08:53.260Z,10.60
2018-05-18T12:11:20.740Z,8.20
2018-05-18T12:13:48.228Z,10.05
2018-05-18T12:16:15.721Z,10.13
2018-05-18T12:18:43.213Z,11.48
2018-05-18T12:21:10.697Z,11.10
2018-05-18T12:23:38.168Z,9.13
2018-05-18T12:26:05.664Z,10.43
2018-05-18T12:28:34.075Z,9.55
2018-05-18T12:31:01.557Z,11.45
2018-05-18T12:33:29.030Z,10.23
2018-05-18T12:35:56.521Z,12.02
2018-05-18T12:38:24.084Z,12.63
2018-05-18T12:40:51.584Z,10.43
2018-05-18T12:43:19.172Z,10.25
2018-05-18T12:45:46.636Z,13.65
2018-05-18T12:48:14.138Z,11.33
2018-05-18T12:50:41.604Z,8.40
2018-05-18T12:53:09.061Z,11.10
2018-05-18T12:55:36.600Z,11.97
2018-05-18T12:58:04.168Z,10.18
2018-05-18T13:00:31.636Z,9.37
2018-05-18T13:02:59.124Z,12.25
2018-05-18T13:05:26.586Z,13.95
2018-05-18T13:07:54.049Z,11.93
2018-05-18T13:10:22.324Z,11.12
2018-05-18T13:12:49.795Z,13.53
2018-05-18T13:15:17.265Z,13.13
2018-05-18T13:17:44.757Z,12.27
2018-05-18T13:20:12.236Z,12.53
2018-05-18T13:22:39.709Z,10.40
2018-05-18T13:25:07.235Z,11.53
2018-05-18T13:27:34.802Z,9.60
2018-05-18T13:30:02.324Z,11.77
2018-05-18T13:32:29.780Z,12.00
2018-05-18T13:34:57.368Z,12.20
2018-05-18T13:37:24.833Z,14.20
2018-05-18T13:39:52.298Z,15.63
2018-05-18T13:42:20.524Z,15.83
2018-05-18T13:44:48.043Z,13.07
2018-05-18T13:47:15.517Z,20.33
2018-05-18T13:49:43.007Z,27.67
2018-05-18T13:52:10.466Z,10.73
2018-05-18T13:54:38.700Z,11.70
2018-05-18T13:57:06.742Z,15.03
2018-05-18T13:59:34.206Z,10.87
2018-05-18T14:02:01.696Z,12.63
2018-05-18T14:04:29.181Z,12.00
2018-05-18T14:06:56.667Z,9.00
2018-05-18T14:09:24.141Z,11.13
2018-05-18T14:11:51.613Z,20.87
2018-05-18T14:14:19.734Z,21.20
2018-05-18T14:16:48.511Z,11.80
2018-05-18T14:19:16.244Z,12.07
2018-05-18T14:21:44.454Z,9.93
2018-05-18T14:24:11.932Z,11.17
2018-05-18T14:26:40.186Z,11.30
2018-05-18T14:29:08.246Z,11.33
2018-05-18T14:31:37.526Z,8.50
2018-05-18T14:34:05.001Z,10.90
2018-05-18T14:36:32.487Z,11.57
2018-05-18T14:38:59.988Z,33.57
2018-05-18T14:41:27.484Z,14.37
2018-05-18T14:43:55.064Z,12.60
2018-05-18T14:46:23.268Z,11.87
2018-05-18T14:48:50.726Z,10.43
2018-05-18T14:51:18.253Z,10.57
2018-05-18T14:53:45.811Z,8.53
2018-05-18T14:56:14.076Z,18.83
2018-05-18T14:58:41.552Z,13.53
2018-05-18T15:01:09.017Z,10.17
2018-05-18T15:03:36.542Z,12.00
2018-05-18T15:06:04.005Z,12.33
2018-05-18T15:08:31.511Z,9.17
2018-05-18T15:10:59.010Z,10.03
2018-05-18T15:13:26.521Z,11.93
2018-05-18T15:15:54.080Z,11.67
2018-05-18T15:18:21.569Z,10.30
2018-05-18T15:20:49.045Z,11.47
2018-05-18T15:23:17.199Z,11.53
2018-05-18T15:25:45.504Z,9.87
2018-05-18T15:28:13.740Z,11.53
2018-05-18T15:30:41.196Z,10.87
2018-05-18T15:33:09.435Z,11.30
2018-05-18T15:35:37.920Z,11.07
2018-05-18T15:38:06.186Z,11.13
2018-05-18T15:40:33.654Z,11.57
2018-05-18T15:43:01.142Z,13.20
2018-05-18T15:45:28.600Z,12.10
2018-05-18T15:47:56.824Z,13.20
2018-05-18T15:50:24.332Z,9.57
2018-05-18T15:52:51.822Z,11.53
2018-05-18T15:55:19.289Z,12.43
2018-05-18T15:57:46.787Z,9.90
2018-05-18T16:00:14.244Z,9.80
2018-05-18T16:02:42.492Z,9.43
2018-05-18T16:05:09.950Z,9.70
2018-05-18T16:07:37.413Z,11.97
2018-05-18T16:10:04.874Z,9.90
2018-05-18T16:12:33.145Z,10.13
2018-05-18T16:15:00.601Z,8.77
2018-05-18T16:17:35.683Z,10.60
2018-05-18T16:20:03.341Z,10.70
2018-05-18T16:22:31.575Z,10.03
2018-05-18T16:24:59.093Z,9.10
2018-05-18T16:27:26.563Z,12.63
2018-05-18T16:29:54.060Z,11.17
2018-05-18T16:32:21.536Z,14.80
2018-05-18T16:34:49.042Z,11.13
2018-05-18T16:37:16.504Z,11.90
2018-05-18T16:39:43.977Z,9.13
2018-05-18T16:42:11.432Z,10.60
2018-05-18T16:44:39.697Z,9.20
2018-05-18T16:47:07.209Z,10.70
2018-05-18T16:49:34.686Z,9.23
2018-05-18T16:52:02.198Z,9.80
2018-05-18T16:54:30.424Z,9.00
2018-05-18T16:56:57.890Z,9.97
2018-05-18T16:59:26.117Z,9.90
2018-05-18T17:01:53.638Z,12.37
2018-05-18T17:04:21.151Z,7.20
2018-05-18T17:06:48.725Z,11.03
2018-05-18T17:09:16.193Z,10.50
2018-05-18T17:11:43.711Z,9.93
2018-05-18T17:14:11.172Z,9.97
2018-05-18T17:16:38.682Z,8.27
2018-05-18T17:19:06.177Z,13.43
2018-05-18T17:21:33.735Z,10.63
2018-05-18T17:24:01.228Z,7.63
2018-05-18T17:26:28.721Z,10.17
2018-05-18T17:28:56.209Z,7.63
2018-05-18T17:31:23.693Z,7.70
2018-05-18T17:33:51.198Z,10.07
2018-05-18T17:36:18.720Z,13.27
2018-05-18T17:38:46.283Z,8.93
2018-05-18T17:41:13.756Z,10.00
2018-05-18T17:43:41.236Z,9.43
2018-05-18T17:46:08.696Z,15.20
2018-05-18T17:48:36.172Z,9.60
2018-05-18T17:51:03.688Z,13.10
2018-05-18T17:53:31.140Z,7.93
2018-05-18T17:55:58.600Z,13.10
2018-05-18T17:58:26.850Z,8.33
2018-05-18T18:00:54.305Z,9.97
2018-05-18T18:03:21.790Z,7.60
2018-05-18T18:05:50.049Z,9.40
2018-05-18T18:08:17.508Z,12.03
2018-05-18T18:10:44.969Z,10.03
2018-05-18T18:13:13.209Z,15.53
2018-05-18T18:15:40.670Z,12.00
2018-05-18T18:18:08.194Z,8.53
2018-05-18T18:20:36.458Z,13.07
2018-05-18T18:23:03.929Z,9.67
2018-05-18T18:25:32.853Z,8.07
2018-05-18T18:28:00.964Z,10.90
2018-05-18T18:30:28.526Z,10.80
2018-05-18T18:32:58.426Z,8.37
2018-05-18T18:35:26.039Z,9.17
2018-05-18T18:37:53.531Z,9.90
2018-05-18T18:40:21.095Z,9.70
2018-05-18T18:42:48.627Z,7.97
2018-05-18T18:45:16.936Z,8.77
2018-05-18T18:47:45.248Z,9.40
2018-05-18T18:50:12.836Z,12.17
2018-05-18T18:52:40.362Z,9.07
2018-05-18T18:55:07.825Z,14.50
2018-05-18T18:57:35.376Z,9.27
2018-05-18T19:00:03.078Z,12.50
2018-05-18T19:02:30.584Z,11.37
2018-05-18T19:04:58.262Z,11.97
2018-05-18T19:07:25.729Z,11.60
2018-05-18T19:09:53.225Z,12.13
2018-05-18T19:12:20.704Z,14.30
2018-05-18T19:14:48.189Z,12.10
2018-05-18T19:17:15.674Z,16.13
2018-05-18T19:19:43.129Z,12.97
2018-05-18T19:22:10.625Z,15.00
2018-05-18T19:24:38.095Z,12.30
2018-05-18T19:27:05.600Z,11.80
2018-05-18T19:29:34.750Z,9.30
2018-05-18T19:32:02.461Z,11.03
2018-05-18T19:34:30.767Z,13.10
2018-05-18T19:36:58.991Z,11.90
2018-05-18T19:39:26.452Z,12.03
2018-05-18T19:41:53.985Z,13.10
2018-05-18T19:44:21.445Z,14.37
2018-05-18T19:46:49.672Z,11.20
2018-05-18T19:49:17.379Z,10.23
2018-05-18T19:51:44.853Z,12.50
2018-05-18T19:54:13.081Z,14.83
2018-05-18T19:56:40.546Z,14.57
2018-05-18T19:59:08.002Z,11.33
2018-05-18T20:01:35.472Z,13.13
2018-05-18T20:04:02.932Z,11.23
2018-05-18T20:06:30.441Z,13.70
2018-05-18T20:08:57.897Z,11.03
2018-05-18T20:11:25.431Z,12.97
2018-05-18T20:13:52.985Z,12.07
2018-05-18T20:16:20.438Z,14.67
2018-05-18T20:18:47.968Z,10.60
2018-05-18T20:21:15.448Z,15.23
2018-05-18T20:23:42.913Z,15.67
2018-05-18T20:26:10.370Z,13.37
2018-05-18T20:28:37.861Z,17.07
2018-05-18T20:31:05.378Z,15.77
2018-05-18T20:33:32.861Z,16.47
2018-05-18T20:36:00.320Z,16.53
2018-05-18T20:38:28.562Z,13.80
2018-05-18T20:40:56.065Z,14.47
2018-05-18T20:43:23.549Z,14.93
2018-05-18T20:45:51.029Z,16.13
2018-05-18T20:48:18.497Z,14.70
2018-05-18T20:50:45.996Z,14.60
2018-05-18T20:53:13.491Z,17.13
2018-05-18T20:55:40.948Z,14.23
2018-05-18T20:58:08.467Z,14.50
2018-05-18T21:00:35.957Z,13.17
2018-05-18T21:03:03.495Z,12.40
2018-05-18T21:05:31.777Z,15.00
2018-05-18T21:07:59.813Z,16.13
2018-05-18T21:10:27.277Z,15.53
2018-05-18T21:12:55.570Z,14.47
2018-05-18T21:15:23.836Z,15.57
2018-05-18T21:17:51.295Z,19.70
2018-05-18T21:20:18.798Z,18.50
2018-05-18T21:22:46.264Z,21.93
2018-05-18T21:25:13.729Z,17.10
2018-05-18T21:27:41.184Z,22.23
2018-05-18T21:30:08.652Z,17.43
2018-05-18T21:32:36.116Z,14.97
2018-05-18T21:35:03.564Z,19.87
2018-05-18T21:37:31.090Z,16.23
2018-05-18T21:39:58.608Z,15.53
2018-05-18T21:42:26.063Z,14.93
2018-05-18T21:44:53.520Z,19.57
2018-05-18T21:47:20.980Z,14.67
2018-05-18T21:49:49.249Z,16.57
2018-05-18T21:52:16.719Z,18.30
2018-05-18T21:54:44.186Z,15.53
2018-05-18T21:57:12.418Z,19.83
2018-05-18T21:59:39.925Z,16.37
2018-05-18T22:02:07.398Z,17.13
2018-05-18T22:04:34.882Z,17.30
2018-05-18T22:07:02.345Z,19.50
2018-05-18T22:09:29.806Z,15.60
2018-05-18T22:11:58.052Z,18.40
2018-05-18T22:14:25.537Z,15.10
2018-05-18T22:16:53.013Z,16.13
2018-05-18T22:19:20.469Z,16.17
2018-05-18T22:21:47.925Z,14.37
2018-05-18T22:24:15.457Z,17.17
2018-05-18T22:26:43.680Z,14.17
2018-05-18T22:29:11.203Z,17.97
2018-05-18T22:31:38.669Z,14.07
2018-05-18T22:34:06.134Z,13.80
2018-05-18T22:36:33.640Z,14.47
2018-05-18T22:39:01.179Z,14.67
2018-05-18T22:41:29.423Z,16.73
2018-05-18T22:43:56.885Z,15.67
2018-05-18T22:46:24.413Z,12.97
2018-05-18T22:48:52.020Z,14.80
2018-05-18T22:51:19.582Z,15.37
2018-05-18T22:53:47.060Z,16.27
2018-05-18T22:56:14.525Z,15.70
2018-05-18T22:58:41.988Z,15.30
2018-05-18T23:01:10.336Z,14.63
2018-05-18T23:03:37.833Z,18.13
2018-05-18T23:06:05.310Z,19.67
2018-05-18T23:08:32.798Z,12.70
2018-05-18T23:11:00.276Z,16.03
2018-05-18T23:13:27.734Z,16.70
2018-05-18T23:15:55.255Z,18.40
2018-05-18T23:18:22.728Z,16.53
2018-05-18T23:20:50.189Z,13.23
2018-05-18T23:23:17.696Z,14.67
2018-05-18T23:25:45.235Z,16.60
2018-05-18T23:28:12.677Z,14.63
2018-05-18T23:30:40.158Z,17.10
2018-05-18T23:33:07.620Z,16.67
2018-05-18T23:35:35.132Z,13.37
2018-05-18T23:38:02.589Z,15.43
2018-05-18T23:40:30.052Z,13.13
2018-05-18T23:42:57.601Z,13.60
2018-05-18T23:45:25.060Z,18.10
2018-05-18T23:47:52.569Z,16.00
2018-05-18T23:50:20.048Z,16.17
2018-05-18T23:52:47.532Z,15.70
2018-05-18T23:55:15.074Z,14.57
2018-05-18T23:57:42.536Z,16.50
